sensor_id;sensor_type;location;lat;lon;timestamp;temperature;humidity
49124;DHT22;48506;48.202;16.274;2024-02-04T00:00:01;9.60;98.80
49124;DHT22;48506;48.202;16.274;2024-02-04T00:02:27;9.60;98.80
49124;DHT22;48506;48.202;16.274;2024-02-04T00:04:52;9.60;98.70
49124;DHT22;48506;48.202;16.274;2024-02-04T00:07:18;9.60;98.70
49124;DHT22;48506;48.202;16.274;2024-02-04T00:09:44;9.60;98.70
49124;DHT22;48506;48.202;16.274;2024-02-04T00:12:10;9.70;98.60
49124;DHT22;48506;48.202;16.274;2024-02-04T00:14:37;9.70;98.50
49124;DHT22;48506;48.202;16.274;2024-02-04T00:17:02;9.70;98.40
49124;DHT22;48506;48.202;16.274;2024-02-04T00:19:29;9.70;98.40
49124;DHT22;48506;48.202;16.274;2024-02-04T00:21:55;9.70;98.40
49124;DHT22;48506;48.202;16.274;2024-02-04T00:24:21;9.70;98.40
49124;DHT22;48506;48.202;16.274;2024-02-04T00:26:47;9.60;98.60
49124;DHT22;48506;48.202;16.274;2024-02-04T00:29:13;9.60;98.60
49124;DHT22;48506;48.202;16.274;2024-02-04T00:31:39;9.70;98.50
49124;DHT22;48506;48.202;16.274;2024-02-04T00:34:05;9.60;98.40
49124;DHT22;48506;48.202;16.274;2024-02-04T00:36:31;9.70;98.40
49124;DHT22;48506;48.202;16.274;2024-02-04T00:38:57;9.70;98.40
49124;DHT22;48506;48.202;16.274;2024-02-04T00:41:23;9.70;98.40
49124;DHT22;48506;48.202;16.274;2024-02-04T00:43:49;9.70;98.50
49124;DHT22;48506;48.202;16.274;2024-02-04T00:46:15;9.70;98.40
49124;DHT22;48506;48.202;16.274;2024-02-04T00:48:41;9.80;98.40
49124;DHT22;48506;48.202;16.274;2024-02-04T00:51:07;9.80;98.20
49124;DHT22;48506;48.202;16.274;2024-02-04T00:53:33;9.80;98.20
49124;DHT22;48506;48.202;16.274;2024-02-04T00:56:01;9.90;98.30
49124;DHT22;48506;48.202;16.274;2024-02-04T00:58:28;9.90;98.40
49124;DHT22;48506;48.202;16.274;2024-02-04T01:00:53;9.90;98.20
49124;DHT22;48506;48.202;16.274;2024-02-04T01:03:19;9.90;98.20
49124;DHT22;48506;48.202;16.274;2024-02-04T01:05:45;9.90;98.20
49124;DHT22;48506;48.202;16.274;2024-02-04T01:08:11;10.00;98.30
49124;DHT22;48506;48.202;16.274;2024-02-04T01:10:37;10.00;98.30
49124;DHT22;48506;48.202;16.274;2024-02-04T01:13:04;10.00;98.50
49124;DHT22;48506;48.202;16.274;2024-02-04T01:15:29;9.90;98.90
49124;DHT22;48506;48.202;16.274;2024-02-04T01:17:55;9.90;99.30
49124;DHT22;48506;48.202;16.274;2024-02-04T01:20:21;9.80;99.80
49124;DHT22;48506;48.202;16.274;2024-02-04T01:22:47;9.70;99.90
49124;DHT22;48506;48.202;16.274;2024-02-04T01:25:13;9.70;99.90
49124;DHT22;48506;48.202;16.274;2024-02-04T01:27:39;9.60;99.90
49124;DHT22;48506;48.202;16.274;2024-02-04T01:30:05;9.60;99.90
49124;DHT22;48506;48.202;16.274;2024-02-04T01:32:31;9.50;99.90
49124;DHT22;48506;48.202;16.274;2024-02-04T01:34:57;9.50;99.90
49124;DHT22;48506;48.202;16.274;2024-02-04T01:37:23;9.40;99.90
49124;DHT22;48506;48.202;16.274;2024-02-04T01:39:49;9.30;99.90
49124;DHT22;48506;48.202;16.274;2024-02-04T01:42:15;9.30;99.90
49124;DHT22;48506;48.202;16.274;2024-02-04T01:44:41;9.30;99.90
49124;DHT22;48506;48.202;16.274;2024-02-04T01:47:08;9.30;99.90
49124;DHT22;48506;48.202;16.274;2024-02-04T01:49:35;9.30;99.90
49124;DHT22;48506;48.202;16.274;2024-02-04T01:52:02;9.30;99.90
49124;DHT22;48506;48.202;16.274;2024-02-04T01:54:30;9.30;99.90
49124;DHT22;48506;48.202;16.274;2024-02-04T01:56:58;9.20;99.90
49124;DHT22;48506;48.202;16.274;2024-02-04T01:59:29;9.10;99.90
49124;DHT22;48506;48.202;16.274;2024-02-04T02:02:06;9.10;99.90
49124;DHT22;48506;48.202;16.274;2024-02-04T02:04:32;9.10;99.90
49124;DHT22;48506;48.202;16.274;2024-02-04T02:06:58;9.10;99.90
49124;DHT22;48506;48.202;16.274;2024-02-04T02:09:28;9.10;99.90
49124;DHT22;48506;48.202;16.274;2024-02-04T02:12:11;9.10;99.90
49124;DHT22;48506;48.202;16.274;2024-02-04T02:14:48;9.10;99.90
49124;DHT22;48506;48.202;16.274;2024-02-04T02:17:23;9.00;99.90
49124;DHT22;48506;48.202;16.274;2024-02-04T02:20:09;9.00;99.90
49124;DHT22;48506;48.202;16.274;2024-02-04T02:22:48;9.00;99.90
49124;DHT22;48506;48.202;16.274;2024-02-04T02:25:14;9.00;99.90
49124;DHT22;48506;48.202;16.274;2024-02-04T02:27:49;9.00;99.90
49124;DHT22;48506;48.202;16.274;2024-02-04T02:30:16;9.00;99.90
49124;DHT22;48506;48.202;16.274;2024-02-04T02:32:44;9.00;99.90
49124;DHT22;48506;48.202;16.274;2024-02-04T02:35:12;9.00;99.90
49124;DHT22;48506;48.202;16.274;2024-02-04T02:37:53;9.00;99.90
49124;DHT22;48506;48.202;16.274;2024-02-04T02:40:58;9.00;99.90
49124;DHT22;48506;48.202;16.274;2024-02-04T02:43:16;9.00;99.90
49124;DHT22;48506;48.202;16.274;2024-02-04T02:45:43;9.00;99.90
49124;DHT22;48506;48.202;16.274;2024-02-04T02:48:11;9.00;99.90
49124;DHT22;48506;48.202;16.274;2024-02-04T02:50:38;9.00;99.90
49124;DHT22;48506;48.202;16.274;2024-02-04T02:53:04;8.90;99.90
49124;DHT22;48506;48.202;16.274;2024-02-04T02:55:30;9.00;99.90
49124;DHT22;48506;48.202;16.274;2024-02-04T02:57:56;9.00;99.90
49124;DHT22;48506;48.202;16.274;2024-02-04T03:00:22;9.00;99.90
49124;DHT22;48506;48.202;16.274;2024-02-04T03:02:49;9.00;99.90
49124;DHT22;48506;48.202;16.274;2024-02-04T03:05:18;9.00;99.90
49124;DHT22;48506;48.202;16.274;2024-02-04T03:07:44;9.00;99.90
49124;DHT22;48506;48.202;16.274;2024-02-04T03:10:10;9.00;99.90
49124;DHT22;48506;48.202;16.274;2024-02-04T03:12:36;9.00;99.90
49124;DHT22;48506;48.202;16.274;2024-02-04T03:15:02;9.00;99.90
49124;DHT22;48506;48.202;16.274;2024-02-04T03:17:28;9.00;99.90
49124;DHT22;48506;48.202;16.274;2024-02-04T03:19:54;9.00;99.90
49124;DHT22;48506;48.202;16.274;2024-02-04T03:22:22;9.00;99.90
49124;DHT22;48506;48.202;16.274;2024-02-04T03:24:49;9.00;99.90
49124;DHT22;48506;48.202;16.274;2024-02-04T03:27:17;9.00;99.90
49124;DHT22;48506;48.202;16.274;2024-02-04T03:29:43;9.00;99.90
49124;DHT22;48506;48.202;16.274;2024-02-04T03:32:11;9.00;99.90
49124;DHT22;48506;48.202;16.274;2024-02-04T03:34:37;9.00;99.90
49124;DHT22;48506;48.202;16.274;2024-02-04T03:37:03;9.10;99.90
49124;DHT22;48506;48.202;16.274;2024-02-04T03:39:29;9.00;99.90
49124;DHT22;48506;48.202;16.274;2024-02-04T03:41:55;9.00;99.90
49124;DHT22;48506;48.202;16.274;2024-02-04T03:44:21;9.00;99.90
49124;DHT22;48506;48.202;16.274;2024-02-04T03:46:50;8.90;99.90
49124;DHT22;48506;48.202;16.274;2024-02-04T03:49:17;9.00;99.90
49124;DHT22;48506;48.202;16.274;2024-02-04T03:51:43;9.00;99.90
49124;DHT22;48506;48.202;16.274;2024-02-04T03:54:09;9.00;99.90
49124;DHT22;48506;48.202;16.274;2024-02-04T03:56:35;9.00;99.90
49124;DHT22;48506;48.202;16.274;2024-02-04T03:59:01;9.10;99.90
49124;DHT22;48506;48.202;16.274;2024-02-04T04:01:27;9.10;99.90
49124;DHT22;48506;48.202;16.274;2024-02-04T04:03:53;9.10;99.90
49124;DHT22;48506;48.202;16.274;2024-02-04T04:06:19;9.10;99.90
49124;DHT22;48506;48.202;16.274;2024-02-04T04:08:44;9.10;99.90
49124;DHT22;48506;48.202;16.274;2024-02-04T04:11:10;9.10;99.90
49124;DHT22;48506;48.202;16.274;2024-02-04T04:13:37;9.10;99.90
49124;DHT22;48506;48.202;16.274;2024-02-04T04:16:04;9.20;99.90
49124;DHT22;48506;48.202;16.274;2024-02-04T04:18:30;9.10;99.90
49124;DHT22;48506;48.202;16.274;2024-02-04T04:20:57;9.20;99.90
49124;DHT22;48506;48.202;16.274;2024-02-04T04:23:23;9.20;99.90
49124;DHT22;48506;48.202;16.274;2024-02-04T04:25:48;9.20;99.90
49124;DHT22;48506;48.202;16.274;2024-02-04T04:28:14;9.20;99.90
49124;DHT22;48506;48.202;16.274;2024-02-04T04:30:40;9.20;99.90
49124;DHT22;48506;48.202;16.274;2024-02-04T04:33:06;9.20;99.90
49124;DHT22;48506;48.202;16.274;2024-02-04T04:35:32;9.20;99.90
49124;DHT22;48506;48.202;16.274;2024-02-04T04:37:58;9.20;99.90
49124;DHT22;48506;48.202;16.274;2024-02-04T04:40:24;9.20;99.90
49124;DHT22;48506;48.202;16.274;2024-02-04T04:42:50;9.20;99.90
49124;DHT22;48506;48.202;16.274;2024-02-04T04:45:16;9.20;99.90
49124;DHT22;48506;48.202;16.274;2024-02-04T04:47:42;9.20;99.90
49124;DHT22;48506;48.202;16.274;2024-02-04T04:50:08;9.20;99.90
49124;DHT22;48506;48.202;16.274;2024-02-04T04:52:34;9.20;99.90
49124;DHT22;48506;48.202;16.274;2024-02-04T04:55:00;9.20;99.90
49124;DHT22;48506;48.202;16.274;2024-02-04T04:57:26;9.30;99.90
49124;DHT22;48506;48.202;16.274;2024-02-04T04:59:52;9.30;99.90
49124;DHT22;48506;48.202;16.274;2024-02-04T05:02:18;9.30;99.90
49124;DHT22;48506;48.202;16.274;2024-02-04T05:04:44;9.30;99.90
49124;DHT22;48506;48.202;16.274;2024-02-04T05:07:11;9.30;99.90
49124;DHT22;48506;48.202;16.274;2024-02-04T05:09:37;9.30;99.90
49124;DHT22;48506;48.202;16.274;2024-02-04T05:12:03;9.30;99.90
49124;DHT22;48506;48.202;16.274;2024-02-04T05:14:29;9.30;99.90
49124;DHT22;48506;48.202;16.274;2024-02-04T05:16:55;9.30;99.90
49124;DHT22;48506;48.202;16.274;2024-02-04T05:19:21;9.30;99.90
49124;DHT22;48506;48.202;16.274;2024-02-04T05:21:47;9.40;99.90
49124;DHT22;48506;48.202;16.274;2024-02-04T05:24:12;9.40;99.90
49124;DHT22;48506;48.202;16.274;2024-02-04T05:26:38;9.40;99.90
49124;DHT22;48506;48.202;16.274;2024-02-04T05:29:04;9.40;99.90
49124;DHT22;48506;48.202;16.274;2024-02-04T05:31:30;9.40;99.90
49124;DHT22;48506;48.202;16.274;2024-02-04T05:33:56;9.40;99.90
49124;DHT22;48506;48.202;16.274;2024-02-04T05:36:22;9.40;99.90
49124;DHT22;48506;48.202;16.274;2024-02-04T05:38:48;9.40;99.90
49124;DHT22;48506;48.202;16.274;2024-02-04T05:41:14;9.40;99.90
49124;DHT22;48506;48.202;16.274;2024-02-04T05:43:39;9.30;99.90
49124;DHT22;48506;48.202;16.274;2024-02-04T05:46:05;9.30;99.90
49124;DHT22;48506;48.202;16.274;2024-02-04T05:48:32;9.30;99.90
49124;DHT22;48506;48.202;16.274;2024-02-04T05:50:57;9.30;99.90
49124;DHT22;48506;48.202;16.274;2024-02-04T05:53:24;9.30;99.90
49124;DHT22;48506;48.202;16.274;2024-02-04T05:55:50;9.30;99.90
49124;DHT22;48506;48.202;16.274;2024-02-04T05:58:16;9.20;99.90
49124;DHT22;48506;48.202;16.274;2024-02-04T06:00:42;9.30;99.90
49124;DHT22;48506;48.202;16.274;2024-02-04T06:03:11;9.30;99.90
49124;DHT22;48506;48.202;16.274;2024-02-04T06:05:38;9.30;99.90
49124;DHT22;48506;48.202;16.274;2024-02-04T06:08:07;9.30;99.90
49124;DHT22;48506;48.202;16.274;2024-02-04T06:10:33;9.30;99.90
49124;DHT22;48506;48.202;16.274;2024-02-04T06:12:58;9.30;99.90
49124;DHT22;48506;48.202;16.274;2024-02-04T06:15:24;9.30;99.90
49124;DHT22;48506;48.202;16.274;2024-02-04T06:17:50;9.30;99.90
49124;DHT22;48506;48.202;16.274;2024-02-04T06:20:16;9.30;99.90
49124;DHT22;48506;48.202;16.274;2024-02-04T06:22:42;9.30;99.90
49124;DHT22;48506;48.202;16.274;2024-02-04T06:25:08;9.30;99.90
49124;DHT22;48506;48.202;16.274;2024-02-04T06:27:34;9.30;99.90
49124;DHT22;48506;48.202;16.274;2024-02-04T06:29:59;9.30;99.90
49124;DHT22;48506;48.202;16.274;2024-02-04T06:32:28;9.30;99.90
49124;DHT22;48506;48.202;16.274;2024-02-04T06:34:54;9.40;99.90
49124;DHT22;48506;48.202;16.274;2024-02-04T06:37:21;9.40;99.90
49124;DHT22;48506;48.202;16.274;2024-02-04T06:39:47;9.40;99.90
49124;DHT22;48506;48.202;16.274;2024-02-04T06:42:12;9.40;99.90
49124;DHT22;48506;48.202;16.274;2024-02-04T06:44:38;9.40;99.90
49124;DHT22;48506;48.202;16.274;2024-02-04T06:47:07;9.50;99.90
49124;DHT22;48506;48.202;16.274;2024-02-04T06:49:35;9.50;99.90
49124;DHT22;48506;48.202;16.274;2024-02-04T06:52:01;9.40;99.90
49124;DHT22;48506;48.202;16.274;2024-02-04T06:54:26;9.50;99.90
49124;DHT22;48506;48.202;16.274;2024-02-04T06:56:52;9.50;99.90
49124;DHT22;48506;48.202;16.274;2024-02-04T06:59:18;9.50;99.90
49124;DHT22;48506;48.202;16.274;2024-02-04T07:01:44;9.50;99.90
49124;DHT22;48506;48.202;16.274;2024-02-04T07:04:10;9.60;99.90
49124;DHT22;48506;48.202;16.274;2024-02-04T07:06:36;9.60;99.90
49124;DHT22;48506;48.202;16.274;2024-02-04T07:09:01;9.70;99.90
49124;DHT22;48506;48.202;16.274;2024-02-04T07:11:27;9.80;99.90
49124;DHT22;48506;48.202;16.274;2024-02-04T07:13:53;9.80;99.90
49124;DHT22;48506;48.202;16.274;2024-02-04T07:16:25;9.80;99.90
49124;DHT22;48506;48.202;16.274;2024-02-04T07:18:51;9.90;99.90
49124;DHT22;48506;48.202;16.274;2024-02-04T07:21:17;9.90;99.90
49124;DHT22;48506;48.202;16.274;2024-02-04T07:23:43;9.90;99.90
49124;DHT22;48506;48.202;16.274;2024-02-04T07:26:09;9.90;99.90
49124;DHT22;48506;48.202;16.274;2024-02-04T07:28:35;10.00;99.90
49124;DHT22;48506;48.202;16.274;2024-02-04T07:31:02;10.00;99.90
49124;DHT22;48506;48.202;16.274;2024-02-04T07:33:28;10.00;99.90
49124;DHT22;48506;48.202;16.274;2024-02-04T07:35:54;10.00;99.80
49124;DHT22;48506;48.202;16.274;2024-02-04T07:38:20;10.10;99.90
49124;DHT22;48506;48.202;16.274;2024-02-04T07:40:45;10.10;99.60
49124;DHT22;48506;48.202;16.274;2024-02-04T07:43:11;10.10;99.80
49124;DHT22;48506;48.202;16.274;2024-02-04T07:45:37;10.20;99.80
49124;DHT22;48506;48.202;16.274;2024-02-04T07:48:04;10.20;99.80
49124;DHT22;48506;48.202;16.274;2024-02-04T07:50:30;10.20;99.80
49124;DHT22;48506;48.202;16.274;2024-02-04T07:52:55;10.20;99.50
49124;DHT22;48506;48.202;16.274;2024-02-04T07:55:21;10.30;99.40
49124;DHT22;48506;48.202;16.274;2024-02-04T07:57:47;10.40;99.40
49124;DHT22;48506;48.202;16.274;2024-02-04T08:00:13;10.40;99.20
49124;DHT22;48506;48.202;16.274;2024-02-04T08:02:39;10.40;99.30
49124;DHT22;48506;48.202;16.274;2024-02-04T08:05:05;10.50;99.20
49124;DHT22;48506;48.202;16.274;2024-02-04T08:07:32;10.50;98.90
49124;DHT22;48506;48.202;16.274;2024-02-04T08:09:58;10.50;98.70
49124;DHT22;48506;48.202;16.274;2024-02-04T08:12:24;10.50;99.00
49124;DHT22;48506;48.202;16.274;2024-02-04T08:14:50;10.50;98.70
49124;DHT22;48506;48.202;16.274;2024-02-04T08:17:15;10.60;98.60
49124;DHT22;48506;48.202;16.274;2024-02-04T08:19:41;10.70;98.50
49124;DHT22;48506;48.202;16.274;2024-02-04T08:22:07;10.70;98.60
49124;DHT22;48506;48.202;16.274;2024-02-04T08:24:34;10.80;98.30
49124;DHT22;48506;48.202;16.274;2024-02-04T08:27:00;10.90;98.50
49124;DHT22;48506;48.202;16.274;2024-02-04T08:29:26;11.00;98.30
49124;DHT22;48506;48.202;16.274;2024-02-04T08:31:53;11.10;98.10
49124;DHT22;48506;48.202;16.274;2024-02-04T08:34:19;11.20;98.00
49124;DHT22;48506;48.202;16.274;2024-02-04T08:36:52;11.30;97.70
49124;DHT22;48506;48.202;16.274;2024-02-04T08:39:18;11.40;97.80
49124;DHT22;48506;48.202;16.274;2024-02-04T08:41:44;11.50;97.50
49124;DHT22;48506;48.202;16.274;2024-02-04T08:44:09;11.60;97.30
49124;DHT22;48506;48.202;16.274;2024-02-04T08:46:35;11.60;96.90
49124;DHT22;48506;48.202;16.274;2024-02-04T08:49:01;11.70;96.90
49124;DHT22;48506;48.202;16.274;2024-02-04T08:51:27;11.60;96.60
49124;DHT22;48506;48.202;16.274;2024-02-04T08:53:53;11.60;96.90
49124;DHT22;48506;48.202;16.274;2024-02-04T08:56:19;11.70;96.80
49124;DHT22;48506;48.202;16.274;2024-02-04T08:58:46;11.90;96.40
49124;DHT22;48506;48.202;16.274;2024-02-04T09:01:11;11.90;96.00
49124;DHT22;48506;48.202;16.274;2024-02-04T09:03:37;12.00;96.30
49124;DHT22;48506;48.202;16.274;2024-02-04T09:06:03;12.10;96.40
49124;DHT22;48506;48.202;16.274;2024-02-04T09:08:29;12.20;95.90
49124;DHT22;48506;48.202;16.274;2024-02-04T09:10:55;12.20;95.80
49124;DHT22;48506;48.202;16.274;2024-02-04T09:13:21;12.30;95.70
49124;DHT22;48506;48.202;16.274;2024-02-04T09:15:46;12.40;95.40
49124;DHT22;48506;48.202;16.274;2024-02-04T09:18:13;12.40;95.40
49124;DHT22;48506;48.202;16.274;2024-02-04T09:20:38;12.40;95.20
49124;DHT22;48506;48.202;16.274;2024-02-04T09:23:05;12.50;95.20
49124;DHT22;48506;48.202;16.274;2024-02-04T09:25:31;12.60;95.00
49124;DHT22;48506;48.202;16.274;2024-02-04T09:27:57;12.70;95.20
49124;DHT22;48506;48.202;16.274;2024-02-04T09:30:23;12.80;94.60
49124;DHT22;48506;48.202;16.274;2024-02-04T09:32:49;12.80;94.70
49124;DHT22;48506;48.202;16.274;2024-02-04T09:35:15;12.70;94.70
49124;DHT22;48506;48.202;16.274;2024-02-04T09:37:42;12.70;94.70
49124;DHT22;48506;48.202;16.274;2024-02-04T09:40:08;12.70;94.90
49124;DHT22;48506;48.202;16.274;2024-02-04T09:42:34;12.70;94.70
49124;DHT22;48506;48.202;16.274;2024-02-04T09:45:00;12.70;94.70
49124;DHT22;48506;48.202;16.274;2024-02-04T09:47:27;12.70;94.70
49124;DHT22;48506;48.202;16.274;2024-02-04T09:49:54;12.70;94.80
49124;DHT22;48506;48.202;16.274;2024-02-04T09:52:30;12.80;94.70
49124;DHT22;48506;48.202;16.274;2024-02-04T09:55:00;12.80;94.60
49124;DHT22;48506;48.202;16.274;2024-02-04T09:57:28;12.80;94.50
49124;DHT22;48506;48.202;16.274;2024-02-04T09:59:54;12.80;94.60
49124;DHT22;48506;48.202;16.274;2024-02-04T10:02:20;12.90;94.90
49124;DHT22;48506;48.202;16.274;2024-02-04T10:04:47;13.10;95.00
49124;DHT22;48506;48.202;16.274;2024-02-04T10:07:13;13.30;94.70
49124;DHT22;48506;48.202;16.274;2024-02-04T10:09:40;13.30;94.10
49124;DHT22;48506;48.202;16.274;2024-02-04T10:12:06;13.30;94.20
49124;DHT22;48506;48.202;16.274;2024-02-04T10:14:34;13.30;94.20
49124;DHT22;48506;48.202;16.274;2024-02-04T10:17:00;13.20;94.00
49124;DHT22;48506;48.202;16.274;2024-02-04T10:19:27;13.20;94.60
49124;DHT22;48506;48.202;16.274;2024-02-04T10:22:02;13.40;94.30
49124;DHT22;48506;48.202;16.274;2024-02-04T10:24:29;13.50;93.90
49124;DHT22;48506;48.202;16.274;2024-02-04T10:26:56;13.40;93.50
49124;DHT22;48506;48.202;16.274;2024-02-04T10:29:22;13.40;93.90
49124;DHT22;48506;48.202;16.274;2024-02-04T10:31:49;13.60;93.90
49124;DHT22;48506;48.202;16.274;2024-02-04T10:34:18;13.70;93.60
49124;DHT22;48506;48.202;16.274;2024-02-04T10:36:44;13.70;93.30
49124;DHT22;48506;48.202;16.274;2024-02-04T10:39:10;13.40;93.50
49124;DHT22;48506;48.202;16.274;2024-02-04T10:41:51;13.20;93.70
49124;DHT22;48506;48.202;16.274;2024-02-04T10:44:21;13.20;93.90
49124;DHT22;48506;48.202;16.274;2024-02-04T10:46:50;13.10;94.00
49124;DHT22;48506;48.202;16.274;2024-02-04T10:49:18;13.00;94.30
49124;DHT22;48506;48.202;16.274;2024-02-04T10:51:45;13.10;94.00
49124;DHT22;48506;48.202;16.274;2024-02-04T10:54:16;13.20;94.30
49124;DHT22;48506;48.202;16.274;2024-02-04T10:57:02;13.20;93.70
49124;DHT22;48506;48.202;16.274;2024-02-04T10:59:31;13.00;94.20
49124;DHT22;48506;48.202;16.274;2024-02-04T11:01:59;13.00;94.60
49124;DHT22;48506;48.202;16.274;2024-02-04T11:04:25;13.10;94.70
49124;DHT22;48506;48.202;16.274;2024-02-04T11:06:53;13.10;94.30
49124;DHT22;48506;48.202;16.274;2024-02-04T11:09:19;13.20;93.90
49124;DHT22;48506;48.202;16.274;2024-02-04T11:11:45;13.10;94.30
49124;DHT22;48506;48.202;16.274;2024-02-04T11:14:15;13.00;94.30
49124;DHT22;48506;48.202;16.274;2024-02-04T11:19:47;12.90;94.30
49124;DHT22;48506;48.202;16.274;2024-02-04T11:25:46;12.80;94.60
49124;DHT22;48506;48.202;16.274;2024-02-04T11:28:13;12.70;95.00
49124;DHT22;48506;48.202;16.274;2024-02-04T11:30:43;12.50;95.10
49124;DHT22;48506;48.202;16.274;2024-02-04T11:33:11;12.30;95.30
49124;DHT22;48506;48.202;16.274;2024-02-04T11:35:37;12.30;95.40
49124;DHT22;48506;48.202;16.274;2024-02-04T11:38:04;12.20;95.40
49124;DHT22;48506;48.202;16.274;2024-02-04T11:40:31;12.10;95.80
49124;DHT22;48506;48.202;16.274;2024-02-04T11:43:12;12.00;95.80
49124;DHT22;48506;48.202;16.274;2024-02-04T11:45:40;11.80;96.20
49124;DHT22;48506;48.202;16.274;2024-02-04T11:48:10;11.80;96.30
49124;DHT22;48506;48.202;16.274;2024-02-04T11:50:37;11.80;96.40
49124;DHT22;48506;48.202;16.274;2024-02-04T11:53:08;11.70;96.40
49124;DHT22;48506;48.202;16.274;2024-02-04T11:55:35;11.80;96.40
49124;DHT22;48506;48.202;16.274;2024-02-04T11:58:05;11.70;96.50
49124;DHT22;48506;48.202;16.274;2024-02-04T12:00:35;11.60;96.60
49124;DHT22;48506;48.202;16.274;2024-02-04T12:03:03;11.60;96.60
49124;DHT22;48506;48.202;16.274;2024-02-04T12:05:31;11.70;96.70
49124;DHT22;48506;48.202;16.274;2024-02-04T12:08:06;11.70;96.70
49124;DHT22;48506;48.202;16.274;2024-02-04T12:10:34;11.80;96.40
49124;DHT22;48506;48.202;16.274;2024-02-04T12:13:07;11.90;96.40
49124;DHT22;48506;48.202;16.274;2024-02-04T12:15:36;12.00;96.10
49124;DHT22;48506;48.202;16.274;2024-02-04T12:18:08;12.00;95.90
49124;DHT22;48506;48.202;16.274;2024-02-04T12:20:35;11.90;95.80
49124;DHT22;48506;48.202;16.274;2024-02-04T12:23:04;11.90;95.80
49124;DHT22;48506;48.202;16.274;2024-02-04T12:25:31;11.80;95.90
49124;DHT22;48506;48.202;16.274;2024-02-04T12:28:01;11.80;95.90
49124;DHT22;48506;48.202;16.274;2024-02-04T12:30:28;11.90;95.90
49124;DHT22;48506;48.202;16.274;2024-02-04T12:32:59;11.90;95.80
49124;DHT22;48506;48.202;16.274;2024-02-04T12:35:25;11.90;95.90
49124;DHT22;48506;48.202;16.274;2024-02-04T12:37:54;11.90;95.60
49124;DHT22;48506;48.202;16.274;2024-02-04T12:40:25;11.90;95.60
49124;DHT22;48506;48.202;16.274;2024-02-04T12:42:59;11.90;95.80
49124;DHT22;48506;48.202;16.274;2024-02-04T12:45:28;12.00;95.80
49124;DHT22;48506;48.202;16.274;2024-02-04T12:47:56;12.00;95.90
49124;DHT22;48506;48.202;16.274;2024-02-04T12:50:23;11.90;95.80
49124;DHT22;48506;48.202;16.274;2024-02-04T12:53:05;11.90;95.80
49124;DHT22;48506;48.202;16.274;2024-02-04T12:55:33;11.90;95.90
49124;DHT22;48506;48.202;16.274;2024-02-04T12:58:03;11.80;96.10
49124;DHT22;48506;48.202;16.274;2024-02-04T13:00:35;11.80;96.00
49124;DHT22;48506;48.202;16.274;2024-02-04T13:03:03;11.80;96.10
49124;DHT22;48506;48.202;16.274;2024-02-04T13:05:30;11.80;96.40
49124;DHT22;48506;48.202;16.274;2024-02-04T13:07:58;11.90;96.30
49124;DHT22;48506;48.202;16.274;2024-02-04T13:10:29;12.00;96.20
49124;DHT22;48506;48.202;16.274;2024-02-04T13:15:30;12.20;95.50
49124;DHT22;48506;48.202;16.274;2024-02-04T13:17:56;12.20;95.70
49124;DHT22;48506;48.202;16.274;2024-02-04T13:20:22;12.10;95.60
49124;DHT22;48506;48.202;16.274;2024-02-04T13:22:49;12.10;95.60
49124;DHT22;48506;48.202;16.274;2024-02-04T13:25:15;12.00;95.90
49124;DHT22;48506;48.202;16.274;2024-02-04T13:27:41;12.00;95.90
49124;DHT22;48506;48.202;16.274;2024-02-04T13:30:08;11.80;96.00
49124;DHT22;48506;48.202;16.274;2024-02-04T13:32:40;11.90;96.20
49124;DHT22;48506;48.202;16.274;2024-02-04T13:35:08;11.90;96.00
49124;DHT22;48506;48.202;16.274;2024-02-04T13:37:41;11.90;96.10
49124;DHT22;48506;48.202;16.274;2024-02-04T13:40:08;11.80;96.20
49124;DHT22;48506;48.202;16.274;2024-02-04T13:42:35;11.90;96.20
49124;DHT22;48506;48.202;16.274;2024-02-04T13:45:03;11.90;96.00
49124;DHT22;48506;48.202;16.274;2024-02-04T13:47:29;11.90;96.20
49124;DHT22;48506;48.202;16.274;2024-02-04T13:49:55;12.00;96.00
49124;DHT22;48506;48.202;16.274;2024-02-04T13:52:21;12.00;96.00
49124;DHT22;48506;48.202;16.274;2024-02-04T13:54:48;12.10;95.70
49124;DHT22;48506;48.202;16.274;2024-02-04T13:57:14;12.20;95.90
49124;DHT22;48506;48.202;16.274;2024-02-04T13:59:39;12.20;95.60
49124;DHT22;48506;48.202;16.274;2024-02-04T14:02:07;12.20;95.70
49124;DHT22;48506;48.202;16.274;2024-02-04T14:04:35;12.20;95.60
49124;DHT22;48506;48.202;16.274;2024-02-04T14:07:01;12.10;95.60
49124;DHT22;48506;48.202;16.274;2024-02-04T14:09:27;12.10;95.80
49124;DHT22;48506;48.202;16.274;2024-02-04T14:11:54;12.10;95.80
49124;DHT22;48506;48.202;16.274;2024-02-04T14:14:22;12.00;95.80
49124;DHT22;48506;48.202;16.274;2024-02-04T14:16:48;12.00;95.80
49124;DHT22;48506;48.202;16.274;2024-02-04T14:19:14;12.00;95.80
49124;DHT22;48506;48.202;16.274;2024-02-04T14:21:41;12.00;95.60
49124;DHT22;48506;48.202;16.274;2024-02-04T14:24:07;11.90;95.80
49124;DHT22;48506;48.202;16.274;2024-02-04T14:26:33;11.90;95.80
49124;DHT22;48506;48.202;16.274;2024-02-04T14:28:59;11.80;95.80
49124;DHT22;48506;48.202;16.274;2024-02-04T14:31:24;11.80;95.90
49124;DHT22;48506;48.202;16.274;2024-02-04T14:33:50;11.80;95.90
49124;DHT22;48506;48.202;16.274;2024-02-04T14:36:17;11.70;96.00
49124;DHT22;48506;48.202;16.274;2024-02-04T14:38:42;11.80;96.10
49124;DHT22;48506;48.202;16.274;2024-02-04T14:41:08;11.80;95.90
49124;DHT22;48506;48.202;16.274;2024-02-04T14:43:38;11.70;96.00
49124;DHT22;48506;48.202;16.274;2024-02-04T14:46:04;11.70;96.00
49124;DHT22;48506;48.202;16.274;2024-02-04T14:48:30;11.70;96.00
49124;DHT22;48506;48.202;16.274;2024-02-04T14:50:56;11.70;96.00
49124;DHT22;48506;48.202;16.274;2024-02-04T14:53:24;11.60;96.00
49124;DHT22;48506;48.202;16.274;2024-02-04T14:55:50;11.60;96.00
49124;DHT22;48506;48.202;16.274;2024-02-04T14:58:16;11.60;96.10
49124;DHT22;48506;48.202;16.274;2024-02-04T15:00:42;11.50;96.20
49124;DHT22;48506;48.202;16.274;2024-02-04T15:03:09;11.50;96.20
49124;DHT22;48506;48.202;16.274;2024-02-04T15:05:35;11.50;96.20
49124;DHT22;48506;48.202;16.274;2024-02-04T15:08:01;11.60;96.30
49124;DHT22;48506;48.202;16.274;2024-02-04T15:10:27;11.60;96.20
49124;DHT22;48506;48.202;16.274;2024-02-04T15:12:53;11.60;96.20
49124;DHT22;48506;48.202;16.274;2024-02-04T15:15:20;11.60;96.00
49124;DHT22;48506;48.202;16.274;2024-02-04T15:17:46;11.60;96.20
49124;DHT22;48506;48.202;16.274;2024-02-04T15:20:12;11.60;96.30
49124;DHT22;48506;48.202;16.274;2024-02-04T15:22:40;11.60;96.20
49124;DHT22;48506;48.202;16.274;2024-02-04T15:25:07;11.60;96.30
49124;DHT22;48506;48.202;16.274;2024-02-04T15:27:34;11.60;96.30
49124;DHT22;48506;48.202;16.274;2024-02-04T15:30:00;11.60;96.40